Peckville, Pennsylvania
Current Conditions -  °F | °C
As of 1:54 AM on Sunday 26 Oct 2014 (Local Time) from KAVP Reporting Station
Broken Clouds Broken Clouds  
Wind Chill: 54°   Ceiling: 9000
Heat Index: 54°   Visibility: 10mi
Dew Point: 41°   Wind: 3mph
Humidity: 62%   Direction: 260°W
Pressure: 29.58"   Gusts: NA
Location:  41.48°N, 75.57°W
Report Text: KAVP 260554Z 26003KT 10SM SCT050 BKN090 12/05 A2958 RMK AO2 LTG DSNT N SLP014 60000 T01220050 10172 20122 55009
Loading
Personal Weather Stations






























Interactive Weather Map
Tropical Storm Tracking
New forecast layout! Learn more

10-Day Weather Forecast

Advertisements
Track Severe Weather on mobile